createdAt,value
2023-04-28T00:00:11.839Z,6.20
2023-04-28T00:39:58.227Z,6.60
2023-04-28T00:54:50.698Z,6.90
2023-04-28T01:14:51.159Z,6.70
2023-04-28T01:34:42.534Z,6.50
2023-04-28T02:19:15.734Z,7.50
2023-04-28T03:11:13.011Z,6.30
2023-04-28T03:46:36.136Z,5.60
2023-04-28T04:16:26.120Z,6.90
2023-04-28T04:31:25.994Z,5.90
2023-04-28T04:33:54.107Z,7.60
2023-04-28T04:56:45.634Z,7.40
2023-04-28T04:59:17.358Z,8.10
2023-04-28T05:16:59.685Z,7.80
2023-04-28T05:54:23.763Z,10.30
2023-04-28T06:44:05.606Z,10.60
2023-04-28T06:46:37.491Z,10.60
2023-04-28T07:38:40.866Z,11.20
2023-04-28T07:46:08.908Z,11.60
2023-04-28T07:53:34.137Z,12.00
2023-04-28T07:56:02.466Z,12.30
2023-04-28T07:58:31.297Z,12.40
2023-04-28T08:03:28.036Z,13.30
2023-04-28T08:08:24.926Z,11.80
2023-04-28T08:13:22.231Z,13.20
2023-04-28T08:15:50.200Z,13.40
2023-04-28T08:20:47.346Z,11.90
2023-04-28T08:23:16.631Z,12.20
2023-04-28T08:25:44.969Z,12.20
2023-04-28T08:28:13.670Z,13.60
2023-04-28T08:30:41.668Z,10.70
2023-04-28T08:33:09.672Z,12.90
2023-04-28T08:38:07.629Z,11.90
2023-04-28T08:40:35.733Z,12.60
2023-04-28T08:43:04.186Z,12.70
2023-04-28T08:45:45.949Z,12.20
2023-04-28T08:48:22.454Z,12.20
2023-04-28T08:50:54.582Z,11.80
2023-04-28T08:53:26.177Z,12.30
2023-04-28T08:55:57.986Z,12.10
2023-04-28T08:58:27.551Z,13.30
2023-04-28T09:03:24.864Z,12.40
2023-04-28T09:05:52.962Z,13.20
2023-04-28T09:08:20.959Z,14.40
2023-04-28T09:10:49.281Z,13.50
2023-04-28T09:13:27.043Z,14.30
2023-04-28T09:16:01.648Z,13.00
2023-04-28T09:18:34.133Z,12.30
2023-04-28T09:21:12.969Z,14.10
2023-04-28T09:23:51.977Z,12.50
2023-04-28T09:26:19.947Z,13.40
2023-04-28T09:28:48.178Z,14.10
2023-04-28T09:31:28.518Z,12.60
2023-04-28T09:34:00.630Z,13.60
2023-04-28T09:36:30.738Z,13.40
2023-04-28T09:41:45.635Z,14.10
2023-04-28T09:44:21.736Z,12.10
2023-04-28T09:46:49.690Z,13.20
2023-04-28T09:49:17.681Z,13.30
2023-04-28T09:51:46.078Z,12.10
2023-04-28T09:54:15.131Z,12.50
2023-04-28T09:56:47.406Z,12.50
2023-04-28T09:59:15.410Z,13.70
2023-04-28T10:01:44.821Z,12.70
2023-04-28T10:04:13.629Z,13.30
2023-04-28T10:06:42.902Z,12.10
2023-04-28T10:09:12.231Z,13.00
2023-04-28T10:11:40.594Z,13.30
2023-04-28T10:14:08.724Z,12.20
2023-04-28T10:16:37.951Z,12.20
2023-04-28T10:19:06.160Z,14.00
2023-04-28T10:21:45.304Z,13.40
2023-04-28T10:24:30.914Z,15.00
2023-04-28T10:27:09.881Z,15.00
2023-04-28T10:29:38.124Z,16.10
2023-04-28T10:32:26.335Z,15.70
2023-04-28T10:35:32.465Z,16.30
2023-04-28T10:38:10.895Z,16.70
2023-04-28T10:40:48.875Z,18.10
2023-04-28T10:43:26.473Z,17.80
2023-04-28T10:45:59.446Z,18.10
2023-04-28T10:48:30.784Z,18.90
2023-04-28T10:51:05.394Z,20.20
2023-04-28T10:53:45.827Z,19.70
2023-04-28T10:56:19.106Z,20.10
2023-04-28T10:58:57.970Z,20.30
2023-04-28T11:01:32.441Z,19.90
2023-04-28T11:04:13.526Z,18.90
2023-04-28T11:06:43.975Z,21.10
2023-04-28T11:09:14.925Z,21.20
2023-04-28T11:11:57.490Z,20.70
2023-04-28T11:14:25.792Z,20.60
2023-04-28T11:17:13.252Z,22.20
2023-04-28T11:19:45.303Z,21.30
2023-04-28T11:22:21.836Z,22.10
2023-04-28T11:25:02.443Z,22.20
2023-04-28T11:27:34.548Z,23.60
2023-04-28T11:30:02.606Z,22.90
2023-04-28T11:32:35.944Z,21.20
2023-04-28T11:35:04.830Z,22.00
2023-04-28T11:37:32.912Z,21.10
2023-04-28T11:40:13.022Z,21.70
2023-04-28T11:42:50.102Z,23.00
2023-04-28T11:45:18.351Z,23.70
2023-04-28T11:47:49.577Z,23.00
2023-04-28T11:50:17.567Z,22.10
2023-04-28T11:52:52.485Z,23.20
2023-04-28T11:55:21.708Z,23.30
2023-04-28T12:00:29.830Z,23.70
2023-04-28T12:05:26.409Z,26.00
2023-04-28T12:07:54.415Z,24.30
2023-04-28T12:10:23.598Z,24.10
2023-04-28T12:12:53.430Z,23.60
2023-04-28T12:15:24.705Z,23.50
2023-04-28T12:17:53.334Z,23.90
2023-04-28T12:20:38.871Z,22.10
2023-04-28T12:23:07.791Z,23.70
2023-04-28T12:25:45.705Z,22.60
2023-04-28T12:28:13.925Z,21.90
2023-04-28T12:33:29.586Z,21.50
2023-04-28T12:35:58.425Z,22.20
2023-04-28T12:38:28.194Z,20.80
2023-04-28T12:43:28.773Z,20.80
2023-04-28T12:45:56.965Z,21.40
2023-04-28T12:48:25.341Z,22.30
2023-04-28T12:50:53.519Z,20.90
2023-04-28T12:53:21.481Z,21.20
2023-04-28T12:58:18.346Z,19.10
2023-04-28T13:00:46.302Z,20.40
2023-04-28T13:05:44.219Z,20.30
2023-04-28T13:08:13.912Z,19.60
2023-04-28T13:13:10.516Z,19.10
2023-04-28T13:15:39.288Z,20.90
2023-04-28T13:18:07.350Z,20.70
2023-04-28T13:23:03.817Z,20.10
2023-04-28T13:25:31.847Z,18.80
2023-04-28T13:27:59.800Z,18.70
2023-04-28T13:32:57.552Z,20.00
2023-04-28T13:35:26.156Z,18.50
2023-04-28T13:38:01.573Z,19.70
2023-04-28T13:40:29.827Z,18.50
2023-04-28T13:42:57.780Z,18.50
2023-04-28T13:45:26.871Z,18.30
2023-04-28T13:50:23.968Z,19.20
2023-04-28T13:55:27.459Z,17.50
2023-04-28T13:57:56.456Z,18.70
2023-04-28T14:00:26.085Z,16.90
2023-04-28T14:02:54.187Z,17.80
2023-04-28T14:05:22.684Z,18.80
2023-04-28T14:07:50.760Z,18.70
2023-04-28T14:15:16.174Z,17.00
2023-04-28T14:20:13.231Z,17.50
2023-04-28T14:25:10.188Z,16.60
2023-04-28T14:30:08.705Z,17.70
2023-04-28T14:32:39.912Z,17.30
2023-04-28T14:37:37.720Z,16.70
2023-04-28T14:40:07.270Z,16.90
2023-04-28T14:42:37.429Z,16.30
2023-04-28T14:45:09.034Z,15.80
2023-04-28T14:47:39.116Z,17.40
2023-04-28T14:50:08.674Z,16.10
2023-04-28T14:52:37.263Z,15.90
2023-04-28T14:55:07.249Z,15.80
2023-04-28T14:57:35.364Z,17.40
2023-04-28T15:00:07.945Z,16.30
2023-04-28T15:02:36.583Z,16.40
2023-04-28T15:05:05.942Z,16.20
2023-04-28T15:12:32.065Z,16.40
2023-04-28T15:17:28.590Z,15.40
2023-04-28T15:19:57.348Z,16.30
2023-04-28T15:24:55.306Z,15.00
2023-04-28T15:27:23.810Z,16.50
2023-04-28T15:29:51.949Z,15.30
2023-04-28T15:34:48.910Z,16.00
2023-04-28T15:37:44.559Z,16.30
2023-04-28T15:40:16.141Z,16.10
2023-04-28T15:42:51.975Z,15.40
2023-04-28T15:47:50.920Z,16.40
2023-04-28T15:50:20.392Z,16.20
2023-04-28T15:52:50.145Z,15.80
2023-04-28T15:55:21.700Z,15.40
2023-04-28T15:57:49.822Z,15.40
2023-04-28T16:00:18.075Z,15.40
2023-04-28T16:02:46.559Z,14.80
2023-04-28T16:05:14.772Z,15.70
2023-04-28T16:07:42.941Z,15.70
2023-04-28T16:10:16.621Z,15.50
2023-04-28T16:12:45.324Z,15.50
2023-04-28T16:15:14.972Z,16.00
2023-04-28T16:17:44.252Z,15.80
2023-04-28T16:20:19.170Z,14.50
2023-04-28T16:30:23.872Z,13.90
2023-04-28T16:32:53.108Z,16.10
2023-04-28T16:35:21.772Z,15.00
2023-04-28T16:37:49.764Z,14.90
2023-04-28T16:40:17.811Z,14.80
2023-04-28T16:45:15.401Z,15.70
2023-04-28T16:47:43.771Z,14.60
2023-04-28T16:50:14.802Z,15.20
2023-04-28T16:52:42.789Z,14.90
2023-04-28T16:57:39.120Z,14.60
2023-04-28T17:00:09.423Z,15.20
2023-04-28T17:02:37.621Z,14.30
2023-04-28T17:05:06.086Z,14.20
2023-04-28T17:07:34.119Z,15.70
2023-04-28T17:10:03.180Z,15.80
2023-04-28T17:12:31.291Z,14.80
2023-04-28T17:14:59.247Z,14.30
2023-04-28T17:17:29.036Z,13.90
2023-04-28T17:27:26.410Z,14.10
2023-04-28T17:29:54.554Z,14.50
2023-04-28T17:32:23.647Z,13.80
2023-04-28T17:34:51.643Z,14.40
2023-04-28T17:37:19.656Z,14.70
2023-04-28T17:39:50.814Z,14.90
2023-04-28T17:42:19.344Z,15.50
2023-04-28T17:44:47.272Z,14.50
2023-04-28T17:47:17.202Z,14.00
2023-04-28T17:52:15.378Z,13.70
2023-04-28T17:54:43.387Z,14.20
2023-04-28T17:59:42.504Z,14.10
2023-04-28T18:02:12.031Z,14.90
2023-04-28T18:04:40.416Z,14.50
2023-04-28T18:07:08.439Z,13.10
2023-04-28T18:09:37.180Z,14.30
2023-04-28T18:12:05.575Z,14.00
2023-04-28T18:17:03.245Z,13.60
2023-04-28T18:19:31.311Z,13.00
2023-04-28T18:22:00.299Z,14.00
2023-04-28T18:26:56.847Z,15.00
2023-04-28T18:29:25.324Z,13.90
2023-04-28T18:31:54.271Z,13.20
2023-04-28T18:34:22.283Z,13.80
2023-04-28T18:36:50.456Z,14.30
2023-04-28T18:41:46.998Z,14.10
2023-04-28T18:46:43.757Z,13.80
2023-04-28T18:49:12.724Z,13.10
2023-04-28T18:54:08.946Z,13.80
2023-04-28T18:59:05.815Z,13.40
2023-04-28T19:01:34.000Z,13.00
2023-04-28T19:04:03.105Z,13.90
2023-04-28T19:06:31.299Z,14.00
2023-04-28T19:11:27.495Z,13.70
2023-04-28T19:16:23.681Z,13.40
2023-04-28T19:18:51.753Z,13.20
2023-04-28T19:21:19.963Z,12.40
2023-04-28T19:23:48.562Z,14.30
2023-04-28T19:26:16.575Z,13.60
2023-04-28T19:28:46.642Z,13.70
2023-04-28T19:33:43.282Z,13.60
2023-04-28T19:36:11.262Z,13.80
2023-04-28T19:38:40.194Z,13.80
2023-04-28T19:41:08.273Z,13.70
2023-04-28T19:43:36.699Z,13.30
2023-04-28T19:46:04.906Z,13.00
2023-04-28T19:48:33.201Z,13.10
2023-04-28T19:51:01.309Z,14.30
2023-04-28T19:53:29.477Z,12.30
2023-04-28T19:56:02.022Z,13.00
2023-04-28T20:03:29.909Z,13.40
2023-04-28T20:05:58.082Z,12.30
2023-04-28T20:08:27.497Z,12.20
2023-04-28T20:10:55.581Z,13.90
2023-04-28T20:13:24.064Z,12.10
2023-04-28T20:15:53.066Z,12.80
2023-04-28T20:18:21.112Z,12.30
2023-04-28T20:20:53.069Z,12.20
2023-04-28T20:23:21.049Z,12.70
2023-04-28T20:25:49.200Z,12.60
2023-04-28T20:28:17.457Z,12.30
2023-04-28T20:30:45.924Z,13.10
2023-04-28T20:33:14.384Z,12.20
2023-04-28T20:35:42.921Z,12.70
2023-04-28T20:40:41.353Z,12.30
2023-04-28T20:43:09.710Z,12.10
2023-04-28T20:45:37.805Z,12.70
2023-04-28T20:48:05.885Z,12.40
2023-04-28T20:50:39.290Z,12.80
2023-04-28T20:53:07.576Z,12.40
2023-04-28T20:55:35.637Z,13.70
2023-04-28T20:58:03.673Z,12.20
2023-04-28T21:00:33.545Z,12.70
2023-04-28T21:08:01.218Z,12.20
2023-04-28T21:10:29.414Z,12.00
2023-04-28T21:15:26.164Z,13.50
2023-04-28T21:17:54.374Z,12.20
2023-04-28T21:20:23.298Z,12.80
2023-04-28T21:22:51.408Z,12.30
2023-04-28T21:25:20.251Z,12.40
2023-04-28T21:30:16.460Z,12.20
2023-04-28T21:32:44.400Z,12.20
2023-04-28T21:35:12.458Z,12.10
2023-04-28T21:40:09.978Z,13.10
2023-04-28T21:42:37.999Z,12.30
2023-04-28T21:45:09.444Z,12.30
2023-04-28T21:47:38.060Z,12.60
2023-04-28T21:50:08.881Z,12.40
2023-04-28T21:55:07.175Z,12.70
2023-04-28T22:00:06.361Z,11.90
2023-04-28T22:10:08.172Z,11.40
2023-04-28T22:12:36.089Z,12.10
2023-04-28T22:17:33.227Z,12.00
2023-04-28T22:22:31.109Z,10.20
2023-04-28T22:32:27.495Z,12.40
2023-04-28T22:34:55.526Z,12.40
2023-04-28T22:47:18.182Z,11.50
2023-04-28T22:54:42.899Z,12.60
2023-04-28T23:02:08.894Z,10.20
2023-04-28T23:17:02.519Z,10.40
2023-04-28T23:41:48.941Z,11.60
